createdAt,value
2019-04-20T00:01:01.151Z,102650.08
2019-04-20T00:03:36.786Z,102646.81
2019-04-20T00:06:01.457Z,102649.22
2019-04-20T00:08:34.526Z,102639.66
2019-04-20T00:11:07.947Z,102633.93
2019-04-20T00:13:41.817Z,102636.72
2019-04-20T00:16:02.008Z,102638.71
2019-04-20T00:18:34.701Z,102626.27
2019-04-20T00:21:08.275Z,102624.95
2019-04-20T00:23:43.722Z,102626.75
2019-04-20T00:26:32.246Z,102622.03
2019-04-20T00:29:07.539Z,102623.75
2019-04-20T00:31:35.360Z,102617.74
2019-04-20T00:33:59.409Z,102613.77
2019-04-20T00:36:20.156Z,102609.98
2019-04-20T00:38:53.656Z,102609.98
2019-04-20T00:41:22.087Z,102606.28
2019-04-20T00:43:49.326Z,102605.27
2019-04-20T00:46:27.825Z,102607.81
2019-04-20T00:48:55.875Z,102613.27
2019-04-20T00:51:36.676Z,102600.55
2019-04-20T00:53:51.814Z,102603.14
2019-04-20T00:56:18.481Z,102603.21
2019-04-20T00:58:55.775Z,102602.59
2019-04-20T01:01:37.876Z,102600.09
2019-04-20T01:04:06.508Z,102590.55
2019-04-20T01:06:36.830Z,102596.56
2019-04-20T01:08:59.778Z,102591.39
2019-04-20T01:11:34.879Z,102591.55
2019-04-20T01:14:02.985Z,102595.02
2019-04-20T01:16:40.037Z,102596.23
2019-04-20T01:18:58.963Z,102594.97
2019-04-20T01:21:30.418Z,102590.19
2019-04-20T01:24:02.825Z,102591.53
2019-04-20T01:26:29.318Z,102591.69
2019-04-20T01:29:09.149Z,102586.97
2019-04-20T01:31:36.321Z,102595.78
2019-04-20T01:34:06.273Z,102584.55
2019-04-20T01:36:45.849Z,102590.31
2019-04-20T01:39:12.501Z,102588.32
2019-04-20T01:41:28.837Z,102581.66
2019-04-20T01:43:58.550Z,102582.93
2019-04-20T01:46:29.936Z,102590.27
2019-04-20T01:49:00.002Z,102582.30
2019-04-20T01:51:32.385Z,102582.55
2019-04-20T01:54:29.811Z,102583.33
2019-04-20T01:56:53.428Z,102586.02
2019-04-20T01:59:31.780Z,102582.54
2019-04-20T02:01:59.240Z,102586.01
2019-04-20T02:04:27.948Z,102580.56
2019-04-20T02:06:58.741Z,102578.31
2019-04-20T02:09:27.423Z,102582.95
2019-04-20T02:11:55.712Z,102577.33
2019-04-20T02:14:34.243Z,102577.14
2019-04-20T02:17:06.556Z,102570.23
2019-04-20T02:19:37.778Z,102571.61
2019-04-20T02:22:07.656Z,102575.64
2019-04-20T02:24:25.781Z,102572.53
2019-04-20T02:26:55.625Z,102577.80
2019-04-20T02:29:48.893Z,102582.86
2019-04-20T02:32:22.798Z,102577.34
2019-04-20T02:34:59.265Z,102585.38
2019-04-20T02:37:36.663Z,102579.95
2019-04-20T02:40:05.609Z,102579.41
2019-04-20T02:42:44.646Z,102577.87
2019-04-20T02:45:13.034Z,102579.16
2019-04-20T02:52:38.615Z,102582.13
2019-04-20T02:57:44.227Z,102586.45
2019-04-20T03:00:05.471Z,102584.17
2019-04-20T03:02:19.446Z,102587.57
2019-04-20T03:04:42.232Z,102585.97
2019-04-20T03:07:17.439Z,102582.25
2019-04-20T03:09:50.134Z,102584.06
2019-04-20T03:12:29.069Z,102583.78
2019-04-20T03:14:47.297Z,102588.07
2019-04-20T03:17:29.783Z,102586.02
2019-04-20T03:19:51.631Z,102585.39
2019-04-20T03:22:33.766Z,102582.06
2019-04-20T03:25:03.947Z,102575.63
2019-04-20T03:27:25.090Z,102581.41
2019-04-20T03:30:04.238Z,102579.34
2019-04-20T03:37:36.364Z,102586.45
2019-04-20T03:39:56.868Z,102580.17
2019-04-20T03:42:12.594Z,102579.92
2019-04-20T03:44:50.058Z,102573.45
2019-04-20T03:47:23.878Z,102578.63
2019-04-20T03:50:07.403Z,102576.10
2019-04-20T03:52:33.018Z,102574.94
2019-04-20T03:55:01.448Z,102578.23
2019-04-20T03:57:42.225Z,102576.44
2019-04-20T04:00:26.301Z,102580.57
2019-04-20T04:03:31.756Z,102575.41
2019-04-20T04:05:46.927Z,102583.30
2019-04-20T04:08:15.007Z,102581.49
2019-04-20T04:10:58.501Z,102586.24
2019-04-20T04:13:12.753Z,102585.19
2019-04-20T04:15:48.227Z,102587.20
2019-04-20T04:18:20.015Z,102583.72
2019-04-20T04:20:51.269Z,102582.02
2019-04-20T04:23:32.285Z,102581.52
2019-04-20T04:26:07.040Z,102582.99
2019-04-20T04:28:31.093Z,102587.08
2019-04-20T04:31:03.622Z,102584.34
2019-04-20T04:36:01.094Z,102588.11
2019-04-20T04:38:37.428Z,102584.10
2019-04-20T04:43:38.948Z,102588.67
2019-04-20T04:45:47.043Z,102584.15
2019-04-20T04:48:22.378Z,102586.45
2019-04-20T04:50:52.537Z,102591.20
2019-04-20T04:53:28.450Z,102598.67
2019-04-20T04:55:54.660Z,102595.42
2019-04-20T04:58:17.315Z,102590.61
2019-04-20T05:00:46.735Z,102587.18
2019-04-20T05:03:37.358Z,102588.12
2019-04-20T05:06:20.890Z,102591.12
2019-04-20T05:08:36.763Z,102588.31
2019-04-20T05:11:00.769Z,102594.15
2019-04-20T05:13:37.027Z,102588.77
2019-04-20T05:16:13.579Z,102589.25
2019-04-20T05:19:11.937Z,102589.27
2019-04-20T05:21:24.472Z,102595.61
2019-04-20T05:23:47.921Z,102597.05
2019-04-20T05:26:30.773Z,102597.12
2019-04-20T05:28:48.335Z,102590.52
2019-04-20T05:31:13.026Z,102596.14
2019-04-20T05:34:01.202Z,102594.10
2019-04-20T05:36:29.732Z,102596.86
2019-04-20T05:39:13.199Z,102593.38
2019-04-20T05:41:26.725Z,102594.36
2019-04-20T05:43:59.497Z,102595.71
2019-04-20T05:46:32.357Z,102600.00
2019-04-20T05:49:03.294Z,102599.75
2019-04-20T05:51:40.946Z,102593.84
2019-04-20T05:54:07.241Z,102596.31
2019-04-20T05:56:44.502Z,102596.22
2019-04-20T05:59:09.795Z,102591.49
2019-04-20T06:01:40.836Z,102596.10
2019-04-20T06:04:02.538Z,102592.36
2019-04-20T06:06:37.520Z,102596.77
2019-04-20T06:09:10.893Z,102602.55
2019-04-20T06:11:50.103Z,102603.19
2019-04-20T06:14:07.068Z,102603.76
2019-04-20T06:16:54.079Z,102597.52
2019-04-20T06:19:26.076Z,102601.41
2019-04-20T06:22:03.400Z,102598.41
2019-04-20T06:24:40.529Z,102599.59
2019-04-20T06:27:04.771Z,102597.23
2019-04-20T06:29:26.551Z,102607.99
2019-04-20T06:32:06.939Z,102602.06
2019-04-20T06:34:39.918Z,102606.38
2019-04-20T06:37:07.161Z,102605.07
2019-04-20T06:42:09.874Z,102597.55
2019-04-20T06:44:45.758Z,102603.50
2019-04-20T06:52:18.660Z,102599.42
2019-04-20T06:54:38.429Z,102601.20
2019-04-20T06:57:09.973Z,102602.44
2019-04-20T06:59:42.923Z,102606.07
2019-04-20T07:02:20.146Z,102604.58
2019-04-20T07:04:55.557Z,102600.37
2019-04-20T07:07:14.616Z,102598.88
2019-04-20T07:09:52.974Z,102603.67
2019-04-20T07:12:12.377Z,102604.31
2019-04-20T07:14:33.629Z,102605.41
2019-04-20T07:17:29.742Z,102606.23
2019-04-20T07:19:53.903Z,102608.28
2019-04-20T07:25:05.423Z,102604.84
2019-04-20T07:27:22.933Z,102615.14
2019-04-20T07:29:59.788Z,102609.04
2019-04-20T07:32:19.348Z,102609.08
2019-04-20T07:34:55.685Z,102611.86
2019-04-20T07:40:04.287Z,102608.09
2019-04-20T07:42:28.702Z,102610.06
2019-04-20T07:45:01.552Z,102602.91
2019-04-20T07:47:34.749Z,102609.17
2019-04-20T07:49:55.405Z,102608.36
2019-04-20T07:52:08.149Z,102618.66
2019-04-20T07:55:18.341Z,102617.55
2019-04-20T07:57:24.689Z,102610.62
2019-04-20T07:59:55.801Z,102614.78
2019-04-20T08:02:36.669Z,102617.52
2019-04-20T08:05:10.625Z,102611.43
2019-04-20T08:07:39.217Z,102612.27
2019-04-20T08:10:05.834Z,102609.41
2019-04-20T08:12:56.866Z,102610.41
2019-04-20T08:15:32.005Z,102614.59
2019-04-20T08:17:53.915Z,102618.83
2019-04-20T08:20:23.410Z,102611.99
2019-04-20T08:22:53.179Z,102611.24
2019-04-20T08:25:16.678Z,102611.61
2019-04-20T08:27:50.868Z,102610.86
2019-04-20T08:30:40.085Z,102616.37
2019-04-20T08:33:09.525Z,102609.80
2019-04-20T08:35:47.887Z,102607.38
2019-04-20T08:38:47.307Z,102607.36
2019-04-20T08:40:43.599Z,102597.52
2019-04-20T08:43:34.200Z,102602.10
2019-04-20T08:45:49.197Z,102606.88
2019-04-20T08:48:17.425Z,102604.03
2019-04-20T08:50:45.307Z,102606.14
2019-04-20T08:53:23.157Z,102595.50
2019-04-20T08:55:41.324Z,102602.08
2019-04-20T08:57:56.589Z,102586.67
2019-04-20T09:00:33.175Z,102594.27
2019-04-20T09:03:02.338Z,102595.02
2019-04-20T09:05:34.856Z,102586.23
2019-04-20T09:08:06.935Z,102592.05
2019-04-20T09:10:45.054Z,102585.56
2019-04-20T09:13:10.600Z,102584.36
2019-04-20T09:15:27.833Z,102587.00
2019-04-20T09:18:01.946Z,102587.16
2019-04-20T09:20:36.529Z,102584.47
2019-04-20T09:23:18.626Z,102584.41
2019-04-20T09:28:11.733Z,102580.80
2019-04-20T09:30:49.868Z,102576.41
2019-04-20T09:33:41.781Z,102569.88
2019-04-20T09:36:13.935Z,102568.61
2019-04-20T09:38:56.667Z,102573.31
2019-04-20T09:41:42.282Z,102574.79
2019-04-20T09:43:49.364Z,102564.02
2019-04-20T09:46:19.994Z,102565.67
2019-04-20T09:48:54.765Z,102569.42
2019-04-20T09:51:37.572Z,102567.79
2019-04-20T09:54:02.856Z,102558.73
2019-04-20T09:56:35.931Z,102560.59
2019-04-20T09:59:08.167Z,102556.55
2019-04-20T10:01:31.070Z,102560.62
2019-04-20T10:03:50.370Z,102559.83
2019-04-20T10:06:23.052Z,102557.15
2019-04-20T10:08:52.931Z,102558.68
2019-04-20T10:11:19.439Z,102559.88
2019-04-20T10:13:48.199Z,102558.23
2019-04-20T10:16:17.747Z,102552.30
2019-04-20T10:18:50.575Z,102543.22
2019-04-20T10:21:16.448Z,102552.70
2019-04-20T10:23:44.977Z,102548.97
2019-04-20T10:26:14.395Z,102541.62
2019-04-20T10:28:43.649Z,102540.59
2019-04-20T10:31:12.748Z,102545.55
2019-04-20T10:33:41.799Z,102547.09
2019-04-20T10:36:12.069Z,102539.08
2019-04-20T10:38:40.504Z,102540.80
2019-04-20T10:41:16.653Z,102540.39
2019-04-20T10:43:40.673Z,102539.56
2019-04-20T10:46:10.980Z,102538.28
2019-04-20T10:48:45.920Z,102536.51
2019-04-20T10:51:10.704Z,102536.94
2019-04-20T10:53:40.365Z,102535.00
2019-04-20T10:56:09.683Z,102536.72
2019-04-20T10:58:38.259Z,102534.11
2019-04-20T11:01:07.429Z,102534.99
2019-04-20T11:03:36.550Z,102540.41
2019-04-20T11:06:06.709Z,102538.05
2019-04-20T11:08:35.586Z,102533.70
2019-04-20T11:11:12.903Z,102534.70
2019-04-20T11:13:35.275Z,102534.19
2019-04-20T11:16:04.323Z,102534.12
2019-04-20T11:18:33.463Z,102539.63
2019-04-20T11:21:02.057Z,102530.91
2019-04-20T11:23:32.019Z,102532.67
2019-04-20T11:26:02.145Z,102533.12
2019-04-20T11:28:32.269Z,102530.30
2019-04-20T11:31:01.924Z,102529.55
2019-04-20T11:33:32.002Z,102524.70
2019-04-20T11:36:01.139Z,102524.16
2019-04-20T11:38:30.221Z,102523.33
2019-04-20T11:41:10.019Z,102519.89
2019-04-20T11:43:31.417Z,102510.44
2019-04-20T11:46:00.616Z,102510.98
2019-04-20T11:48:29.639Z,102503.23
2019-04-20T11:50:58.459Z,102504.27
2019-04-20T11:53:28.607Z,102499.30
2019-04-20T11:55:58.385Z,102499.58
2019-04-20T11:58:27.971Z,102497.70
2019-04-20T12:01:04.218Z,102493.70
2019-04-20T12:03:37.837Z,102486.89
2019-04-20T12:06:02.785Z,102492.20
2019-04-20T12:08:29.338Z,102490.50
2019-04-20T12:11:01.671Z,102490.22
2019-04-20T12:13:28.957Z,102483.22
2019-04-20T12:15:59.239Z,102497.94
2019-04-20T12:18:27.922Z,102486.89
2019-04-20T12:20:56.734Z,102483.44
2019-04-20T12:23:26.496Z,102484.27
2019-04-20T12:25:56.349Z,102467.77
2019-04-20T12:28:25.407Z,102477.92
2019-04-20T12:30:55.956Z,102489.69
2019-04-20T12:33:24.502Z,102489.19
2019-04-20T12:35:54.203Z,102491.55
2019-04-20T12:38:23.208Z,102486.36
2019-04-20T12:40:52.505Z,102486.47
2019-04-20T12:43:21.094Z,102483.45
2019-04-20T12:45:49.829Z,102479.66
2019-04-20T12:48:19.607Z,102486.00
2019-04-20T12:50:48.291Z,102471.03
2019-04-20T12:53:17.093Z,102464.41
2019-04-20T12:55:46.544Z,102464.07
2019-04-20T12:58:16.626Z,102463.64
2019-04-20T13:00:49.647Z,102463.67
2019-04-20T13:03:19.412Z,102456.33
2019-04-20T13:05:48.235Z,102457.54
2019-04-20T13:08:21.818Z,102454.71
2019-04-20T13:10:48.888Z,102447.45
2019-04-20T13:13:32.396Z,102443.47
2019-04-20T13:16:08.384Z,102438.89
2019-04-20T13:18:41.327Z,102432.67
2019-04-20T13:21:11.175Z,102422.89
2019-04-20T13:23:40.626Z,102434.80
2019-04-20T13:26:10.495Z,102433.13
2019-04-20T13:28:39.317Z,102444.28
2019-04-20T13:31:08.140Z,102427.09
2019-04-20T13:33:36.918Z,102439.42
2019-04-20T13:36:05.898Z,102422.45
2019-04-20T13:38:34.711Z,102419.99
2019-04-20T13:41:04.116Z,102422.55
2019-04-20T13:43:32.873Z,102412.16
2019-04-20T13:46:02.689Z,102408.60
2019-04-20T13:48:31.407Z,102414.30
2019-04-20T13:51:00.227Z,102417.83
2019-04-20T13:53:29.703Z,102409.30
2019-04-20T13:55:59.238Z,102368.97
2019-04-20T13:58:45.741Z,102393.52
2019-04-20T14:01:32.693Z,102397.88
2019-04-20T14:04:03.441Z,102388.50
2019-04-20T14:06:33.128Z,102388.50
2019-04-20T14:09:03.367Z,102385.46
2019-04-20T14:11:32.057Z,102381.39
2019-04-20T14:14:04.502Z,102375.91
2019-04-20T14:16:31.442Z,102370.03
2019-04-20T14:19:00.921Z,102362.50
2019-04-20T14:21:30.202Z,102367.36
2019-04-20T14:23:59.145Z,102363.53
2019-04-20T14:26:27.731Z,102348.09
2019-04-20T14:28:56.736Z,102350.11
2019-04-20T14:31:25.909Z,102322.79
2019-04-20T14:33:55.038Z,102316.47
2019-04-20T14:36:24.363Z,102310.61
2019-04-20T14:38:54.209Z,102307.83
2019-04-20T14:41:24.235Z,102309.70
2019-04-20T14:43:53.227Z,102304.66
2019-04-20T14:46:23.001Z,102302.80
2019-04-20T14:48:52.422Z,102300.48
2019-04-20T14:51:21.564Z,102299.73
2019-04-20T14:53:51.497Z,102297.55
2019-04-20T14:56:20.069Z,102288.59
2019-04-20T14:58:57.556Z,102288.61
2019-04-20T15:01:36.687Z,102289.86
2019-04-20T15:04:12.654Z,102285.42
2019-04-20T15:06:39.421Z,102279.78
2019-04-20T15:09:08.726Z,102276.90
2019-04-20T15:11:39.872Z,102274.10
2019-04-20T15:14:09.014Z,102267.34
2019-04-20T15:16:38.486Z,102273.77
2019-04-20T15:19:09.678Z,102269.94
2019-04-20T15:21:40.075Z,102263.87
2019-04-20T15:24:09.363Z,102261.70
2019-04-20T15:26:38.531Z,102266.09
2019-04-20T15:29:08.400Z,102267.79
2019-04-20T15:31:38.305Z,102267.52
2019-04-20T15:34:07.064Z,102264.72
2019-04-20T15:36:36.114Z,102255.56
2019-04-20T15:39:07.309Z,102260.66
2019-04-20T15:41:36.045Z,102258.56
2019-04-20T15:44:04.669Z,102252.13
2019-04-20T15:46:34.792Z,102252.45
2019-04-20T15:49:04.056Z,102248.19
2019-04-20T15:51:34.165Z,102250.05
2019-04-20T15:54:02.804Z,102245.66
2019-04-20T15:56:31.382Z,102249.64
2019-04-20T15:58:59.855Z,102248.56
2019-04-20T16:01:30.366Z,102250.77
2019-04-20T16:04:21.556Z,102239.50
2019-04-20T16:06:43.368Z,102231.52
2019-04-20T16:09:12.440Z,102232.69
2019-04-20T16:11:41.313Z,102227.28
2019-04-20T16:14:09.865Z,102224.03
2019-04-20T16:16:38.395Z,102224.14
2019-04-20T16:19:12.745Z,102226.46
2019-04-20T16:21:37.621Z,102225.06
2019-04-20T16:24:08.939Z,102218.18
2019-04-20T16:26:39.910Z,102218.30
2019-04-20T16:29:08.553Z,102218.66
2019-04-20T16:31:38.311Z,102217.36
2019-04-20T16:34:07.679Z,102219.09
2019-04-20T16:36:36.698Z,102220.91
2019-04-20T16:39:09.210Z,102219.70
2019-04-20T16:41:38.240Z,102222.29
2019-04-20T16:44:07.212Z,102219.59
2019-04-20T16:46:36.271Z,102221.29
2019-04-20T16:49:05.364Z,102219.09
2019-04-20T16:51:34.761Z,102212.61
2019-04-20T16:54:03.777Z,102213.74
2019-04-20T16:56:32.913Z,102208.38
2019-04-20T16:59:07.044Z,102212.47
2019-04-20T17:01:32.192Z,102203.08
2019-04-20T17:04:07.179Z,102210.12
2019-04-20T17:06:32.147Z,102204.34
2019-04-20T17:09:01.175Z,102213.59
2019-04-20T17:11:30.020Z,102209.31
2019-04-20T17:14:01.406Z,102210.91
2019-04-20T17:16:28.922Z,102206.85
2019-04-20T17:18:57.457Z,102216.98
2019-04-20T17:21:28.970Z,102213.90
2019-04-20T17:23:57.562Z,102208.92
2019-04-20T17:26:29.160Z,102210.31
2019-04-20T17:29:18.152Z,102218.61
2019-04-20T17:32:05.493Z,102214.66
2019-04-20T17:34:46.963Z,102211.91
2019-04-20T17:37:04.635Z,102216.45
2019-04-20T17:39:41.873Z,102213.91
2019-04-20T17:42:20.011Z,102212.00
2019-04-20T17:44:47.286Z,102212.53
2019-04-20T17:47:26.281Z,102215.16
2019-04-20T17:49:57.593Z,102212.64
2019-04-20T17:52:32.389Z,102215.53
2019-04-20T17:54:51.605Z,102214.32
2019-04-20T17:57:21.353Z,102213.05
2019-04-20T17:59:58.256Z,102209.08
2019-04-20T18:02:55.278Z,102219.00
2019-04-20T18:05:37.022Z,102214.77
2019-04-20T18:08:06.404Z,102227.06
2019-04-20T18:10:31.298Z,102229.59
2019-04-20T18:12:46.235Z,102223.16
2019-04-20T18:15:32.459Z,102222.56
2019-04-20T18:18:16.038Z,102221.00
2019-04-20T18:20:38.973Z,102219.03
2019-04-20T18:23:08.593Z,102216.40
2019-04-20T18:26:07.788Z,102219.70
2019-04-20T18:28:21.682Z,102222.63
2019-04-20T18:30:59.271Z,102226.50
2019-04-20T18:33:30.421Z,102227.57
2019-04-20T18:35:58.244Z,102227.91
2019-04-20T18:38:30.566Z,102229.23
2019-04-20T18:41:04.008Z,102226.63
2019-04-20T18:43:29.238Z,102229.01
2019-04-20T18:46:12.478Z,102229.80
2019-04-20T18:48:49.116Z,102237.00
2019-04-20T18:50:57.859Z,102236.81
2019-04-20T18:53:32.436Z,102230.10
2019-04-20T18:55:59.459Z,102235.98
2019-04-20T18:58:27.067Z,102245.39
2019-04-20T19:00:57.080Z,102240.56
2019-04-20T19:03:32.705Z,102237.25
2019-04-20T19:05:55.980Z,102239.28
2019-04-20T19:08:30.297Z,102236.23
2019-04-20T19:11:01.537Z,102239.70
2019-04-20T19:13:36.346Z,102232.88
2019-04-20T19:16:30.673Z,102242.70
2019-04-20T19:19:05.326Z,102239.25
2019-04-20T19:21:22.761Z,102242.10
2019-04-20T19:24:00.305Z,102241.05
2019-04-20T19:26:23.311Z,102244.73
2019-04-20T19:28:55.739Z,102247.77
2019-04-20T19:31:39.340Z,102239.57
2019-04-20T19:34:11.528Z,102239.31
2019-04-20T19:36:30.711Z,102236.58
2019-04-20T19:39:11.012Z,102233.56
2019-04-20T19:41:37.504Z,102236.05
2019-04-20T19:44:09.205Z,102234.41
2019-04-20T19:46:48.314Z,102229.71
2019-04-20T19:49:02.862Z,102227.79
2019-04-20T19:51:48.081Z,102224.48
2019-04-20T19:54:22.699Z,102228.36
2019-04-20T19:56:42.569Z,102220.60
2019-04-20T19:59:09.742Z,102221.75
2019-04-20T20:01:24.793Z,102221.18
2019-04-20T20:03:56.379Z,102227.77
2019-04-20T20:06:29.352Z,102227.52
2019-04-20T20:08:59.239Z,102223.33
2019-04-20T20:11:29.615Z,102233.99
2019-04-20T20:13:55.807Z,102230.43
2019-04-20T20:16:33.599Z,102235.91
2019-04-20T20:19:05.865Z,102234.38
2019-04-20T20:21:39.955Z,102237.13
2019-04-20T20:23:56.455Z,102241.13
2019-04-20T20:26:33.643Z,102242.63
2019-04-20T20:29:08.208Z,102243.03
2019-04-20T20:31:38.418Z,102240.22
2019-04-20T20:34:10.619Z,102238.29
2019-04-20T20:36:42.023Z,102239.46
2019-04-20T20:39:04.615Z,102234.86
2019-04-20T20:41:43.477Z,102242.45
2019-04-20T20:44:05.829Z,102243.63
2019-04-20T20:46:37.509Z,102242.02
2019-04-20T20:49:28.406Z,102246.12
2019-04-20T20:51:48.511Z,102245.62
2019-04-20T20:54:07.660Z,102242.91
2019-04-20T20:56:35.836Z,102248.38
2019-04-20T20:59:10.640Z,102242.91
2019-04-20T21:01:41.415Z,102245.67
2019-04-20T21:04:00.657Z,102251.47
2019-04-20T21:06:30.593Z,102247.89
2019-04-20T21:09:01.344Z,102252.61
2019-04-20T21:11:32.461Z,102250.13
2019-04-20T21:13:59.531Z,102245.70
2019-04-20T21:16:33.050Z,102247.64
2019-04-20T21:19:14.732Z,102249.83
2019-04-20T21:21:42.546Z,102245.70
2019-04-20T21:24:07.104Z,102251.80
2019-04-20T21:26:37.178Z,102239.38
2019-04-20T21:29:01.889Z,102246.23
2019-04-20T21:31:31.452Z,102241.84
2019-04-20T21:34:01.877Z,102238.81
2019-04-20T21:36:31.765Z,102249.59
2019-04-20T21:39:01.464Z,102239.11
2019-04-20T21:41:31.020Z,102240.19
2019-04-20T21:43:59.929Z,102232.77
2019-04-20T21:46:39.898Z,102242.95
2019-04-20T21:49:12.916Z,102236.05
2019-04-20T21:51:42.744Z,102234.42
2019-04-20T21:54:02.909Z,102236.05
2019-04-20T21:56:30.978Z,102232.47
2019-04-20T21:59:02.698Z,102225.02
2019-04-20T22:01:34.586Z,102228.36
2019-04-20T22:04:00.511Z,102225.05
2019-04-20T22:06:29.048Z,102226.41
2019-04-20T22:09:01.080Z,102226.95
2019-04-20T22:11:29.519Z,102223.13
2019-04-20T22:14:03.055Z,102220.08
2019-04-20T22:16:36.562Z,102224.96
2019-04-20T22:19:16.793Z,102221.64
2019-04-20T22:21:45.056Z,102219.17
2019-04-20T22:24:12.799Z,102211.44
2019-04-20T22:26:39.514Z,102213.92
2019-04-20T22:29:00.426Z,102210.84
2019-04-20T22:31:29.891Z,102206.71
2019-04-20T22:34:02.348Z,102210.02
2019-04-20T22:36:34.027Z,102200.31
2019-04-20T22:39:07.519Z,102203.31
2019-04-20T22:41:38.779Z,102200.30
2019-04-20T22:44:13.567Z,102201.61
2019-04-20T22:46:40.963Z,102195.81
2019-04-20T22:49:27.555Z,102197.30
2019-04-20T22:51:48.284Z,102197.52
2019-04-20T22:54:24.285Z,102200.23
2019-04-20T22:56:49.986Z,102201.58
2019-04-20T22:59:13.921Z,102196.36
2019-04-20T23:01:46.468Z,102200.16
2019-04-20T23:04:10.839Z,102198.27
2019-04-20T23:06:44.270Z,102189.46
2019-04-20T23:09:13.251Z,102190.48
2019-04-20T23:11:42.299Z,102190.99
2019-04-20T23:14:10.992Z,102182.77
2019-04-20T23:16:43.974Z,102183.81
2019-04-20T23:19:10.163Z,102179.14
2019-04-20T23:21:46.306Z,102176.08
2019-04-20T23:24:12.891Z,102176.16
2019-04-20T23:26:42.173Z,102172.27
2019-04-20T23:29:09.590Z,102162.98
2019-04-20T23:31:46.023Z,102159.99
2019-04-20T23:34:15.429Z,102164.66
2019-04-20T23:36:43.838Z,102163.16
2019-04-20T23:39:10.691Z,102160.69
2019-04-20T23:41:42.567Z,102159.68
2019-04-20T23:44:27.506Z,102160.67
2019-04-20T23:47:16.994Z,102159.27
2019-04-20T23:50:05.966Z,102156.80
2019-04-20T23:52:39.000Z,102160.13
2019-04-20T23:54:51.325Z,102153.99
2019-04-20T23:57:17.683Z,102159.52
2019-04-20T23:59:48.357Z,102151.18
